sensor_id;sensor_type;location;lat;lon;timestamp;temperature;humidity
12233;DHT22;6179;51.748;8.728;2023-01-25T00:05:07;2.00;98.30
12233;DHT22;6179;51.748;8.728;2023-01-25T00:11:08;1.80;98.30
12233;DHT22;6179;51.748;8.728;2023-01-25T00:17:09;1.50;98.30
12233;DHT22;6179;51.748;8.728;2023-01-25T00:23:10;1.40;98.30
12233;DHT22;6179;51.748;8.728;2023-01-25T00:29:12;1.50;98.30
12233;DHT22;6179;51.748;8.728;2023-01-25T00:35:14;1.50;98.30
12233;DHT22;6179;51.748;8.728;2023-01-25T00:41:14;1.80;98.30
12233;DHT22;6179;51.748;8.728;2023-01-25T00:47:15;1.90;98.30
12233;DHT22;6179;51.748;8.728;2023-01-25T00:53:17;1.90;98.30
12233;DHT22;6179;51.748;8.728;2023-01-25T00:59:17;1.90;98.30
12233;DHT22;6179;51.748;8.728;2023-01-25T01:05:18;1.90;98.30
12233;DHT22;6179;51.748;8.728;2023-01-25T01:11:19;1.90;98.30
12233;DHT22;6179;51.748;8.728;2023-01-25T01:17:20;1.90;98.30
12233;DHT22;6179;51.748;8.728;2023-01-25T01:23:21;1.60;98.30
12233;DHT22;6179;51.748;8.728;2023-01-25T01:29:22;1.80;98.30
12233;DHT22;6179;51.748;8.728;2023-01-25T01:35:22;1.90;98.30
12233;DHT22;6179;51.748;8.728;2023-01-25T01:41:23;1.30;98.30
12233;DHT22;6179;51.748;8.728;2023-01-25T01:47:44;1.60;98.30
12233;DHT22;6179;51.748;8.728;2023-01-25T01:54:01;1.80;98.30
12233;DHT22;6179;51.748;8.728;2023-01-25T02:00:22;1.80;98.30
12233;DHT22;6179;51.748;8.728;2023-01-25T02:06:30;1.30;98.30
12233;DHT22;6179;51.748;8.728;2023-01-25T02:12:34;1.40;98.30
12233;DHT22;6179;51.748;8.728;2023-01-25T02:18:36;1.70;98.30
12233;DHT22;6179;51.748;8.728;2023-01-25T02:24:38;1.20;98.30
12233;DHT22;6179;51.748;8.728;2023-01-25T02:30:46;1.30;98.30
12233;DHT22;6179;51.748;8.728;2023-01-25T02:36:47;1.50;98.30
12233;DHT22;6179;51.748;8.728;2023-01-25T02:42:48;1.40;98.30
12233;DHT22;6179;51.748;8.728;2023-01-25T02:48:49;1.40;98.30
12233;DHT22;6179;51.748;8.728;2023-01-25T02:54:50;1.30;98.30
12233;DHT22;6179;51.748;8.728;2023-01-25T03:00:51;1.30;98.30
12233;DHT22;6179;51.748;8.728;2023-01-25T03:06:53;1.30;98.30
12233;DHT22;6179;51.748;8.728;2023-01-25T03:12:53;1.40;98.30
12233;DHT22;6179;51.748;8.728;2023-01-25T03:18:55;1.30;98.30
12233;DHT22;6179;51.748;8.728;2023-01-25T03:24:55;1.70;98.30
12233;DHT22;6179;51.748;8.728;2023-01-25T03:30:56;1.60;98.30
12233;DHT22;6179;51.748;8.728;2023-01-25T03:36:57;1.40;98.30
12233;DHT22;6179;51.748;8.728;2023-01-25T03:42:58;1.40;98.30
12233;DHT22;6179;51.748;8.728;2023-01-25T03:48:58;1.60;98.30
12233;DHT22;6179;51.748;8.728;2023-01-25T03:54:59;1.50;98.30
12233;DHT22;6179;51.748;8.728;2023-01-25T04:01:01;1.50;98.30
12233;DHT22;6179;51.748;8.728;2023-01-25T04:07:02;1.40;98.30
12233;DHT22;6179;51.748;8.728;2023-01-25T04:13:03;1.20;98.30
12233;DHT22;6179;51.748;8.728;2023-01-25T04:19:04;1.50;98.30
12233;DHT22;6179;51.748;8.728;2023-01-25T04:25:05;1.50;98.30
12233;DHT22;6179;51.748;8.728;2023-01-25T04:31:07;1.50;98.30
12233;DHT22;6179;51.748;8.728;2023-01-25T04:37:08;1.50;98.30
12233;DHT22;6179;51.748;8.728;2023-01-25T04:43:11;1.80;98.30
12233;DHT22;6179;51.748;8.728;2023-01-25T04:49:12;1.80;98.30
12233;DHT22;6179;51.748;8.728;2023-01-25T04:55:13;1.80;98.30
12233;DHT22;6179;51.748;8.728;2023-01-25T05:01:14;1.60;98.30
12233;DHT22;6179;51.748;8.728;2023-01-25T05:07:15;1.10;98.30
12233;DHT22;6179;51.748;8.728;2023-01-25T05:13:15;1.40;98.30
12233;DHT22;6179;51.748;8.728;2023-01-25T05:19:16;1.70;98.30
12233;DHT22;6179;51.748;8.728;2023-01-25T05:25:17;1.70;98.30
12233;DHT22;6179;51.748;8.728;2023-01-25T05:31:36;1.50;98.30
12233;DHT22;6179;51.748;8.728;2023-01-25T05:37:37;1.50;98.30
12233;DHT22;6179;51.748;8.728;2023-01-25T05:43:38;1.40;98.30
12233;DHT22;6179;51.748;8.728;2023-01-25T05:49:39;1.50;98.30
12233;DHT22;6179;51.748;8.728;2023-01-25T05:55:42;1.50;98.30
12233;DHT22;6179;51.748;8.728;2023-01-25T06:01:43;1.20;98.30
12233;DHT22;6179;51.748;8.728;2023-01-25T06:07:44;1.20;98.30
12233;DHT22;6179;51.748;8.728;2023-01-25T06:13:45;1.20;98.30
12233;DHT22;6179;51.748;8.728;2023-01-25T06:19:46;1.20;98.30
12233;DHT22;6179;51.748;8.728;2023-01-25T06:25:47;0.90;98.30
12233;DHT22;6179;51.748;8.728;2023-01-25T06:31:48;0.90;98.30
12233;DHT22;6179;51.748;8.728;2023-01-25T06:37:49;1.40;98.30
12233;DHT22;6179;51.748;8.728;2023-01-25T06:43:50;1.20;98.30
12233;DHT22;6179;51.748;8.728;2023-01-25T06:49:51;0.70;98.30
12233;DHT22;6179;51.748;8.728;2023-01-25T06:55:57;0.70;98.30
12233;DHT22;6179;51.748;8.728;2023-01-25T07:01:59;0.70;98.30
12233;DHT22;6179;51.748;8.728;2023-01-25T07:08:00;1.20;98.30
12233;DHT22;6179;51.748;8.728;2023-01-25T07:14:01;1.20;98.30
12233;DHT22;6179;51.748;8.728;2023-01-25T07:20:02;1.50;98.30
12233;DHT22;6179;51.748;8.728;2023-01-25T07:26:04;1.60;98.30
12233;DHT22;6179;51.748;8.728;2023-01-25T07:32:06;1.60;98.30
12233;DHT22;6179;51.748;8.728;2023-01-25T07:38:06;1.40;98.30
12233;DHT22;6179;51.748;8.728;2023-01-25T07:44:09;1.10;98.30
12233;DHT22;6179;51.748;8.728;2023-01-25T07:50:10;0.80;98.30
12233;DHT22;6179;51.748;8.728;2023-01-25T07:56:11;0.80;98.30
12233;DHT22;6179;51.748;8.728;2023-01-25T08:02:12;1.10;98.30
12233;DHT22;6179;51.748;8.728;2023-01-25T08:08:14;0.80;98.30
12233;DHT22;6179;51.748;8.728;2023-01-25T08:14:14;0.60;98.30
12233;DHT22;6179;51.748;8.728;2023-01-25T08:20:15;0.90;98.30
12233;DHT22;6179;51.748;8.728;2023-01-25T08:26:16;0.60;98.30
12233;DHT22;6179;51.748;8.728;2023-01-25T08:32:17;0.30;98.30
12233;DHT22;6179;51.748;8.728;2023-01-25T08:38:18;0.30;98.30
12233;DHT22;6179;51.748;8.728;2023-01-25T08:44:19;1.10;98.30
12233;DHT22;6179;51.748;8.728;2023-01-25T08:50:23;0.80;98.30
12233;DHT22;6179;51.748;8.728;2023-01-25T08:56:24;0.50;98.30
12233;DHT22;6179;51.748;8.728;2023-01-25T09:02:24;0.50;98.30
12233;DHT22;6179;51.748;8.728;2023-01-25T09:08:25;0.80;98.30
12233;DHT22;6179;51.748;8.728;2023-01-25T09:14:26;0.60;98.30
12233;DHT22;6179;51.748;8.728;2023-01-25T09:20:27;0.30;98.30
12233;DHT22;6179;51.748;8.728;2023-01-25T09:26:27;0.30;98.30
12233;DHT22;6179;51.748;8.728;2023-01-25T09:32:28;0.30;98.30
12233;DHT22;6179;51.748;8.728;2023-01-25T09:38:29;0.40;98.30
12233;DHT22;6179;51.748;8.728;2023-01-25T09:51:29;0.40;98.30
12233;DHT22;6179;51.748;8.728;2023-01-25T09:57:45;0.60;98.30
12233;DHT22;6179;51.748;8.728;2023-01-25T10:04:36;1.00;98.30
12233;DHT22;6179;51.748;8.728;2023-01-25T10:10:33;0.60;98.30
12233;DHT22;6179;51.748;8.728;2023-01-25T10:29:19;0.50;98.30
12233;DHT22;6179;51.748;8.728;2023-01-25T10:35:23;0.30;98.30
12233;DHT22;6179;51.748;8.728;2023-01-25T10:41:41;0.30;98.30
12233;DHT22;6179;51.748;8.728;2023-01-25T10:47:48;0.50;98.30
12233;DHT22;6179;51.748;8.728;2023-01-25T10:54:01;0.50;98.30
12233;DHT22;6179;51.748;8.728;2023-01-25T11:00:13;0.10;98.30
12233;DHT22;6179;51.748;8.728;2023-01-25T11:06:39;0.30;98.30
12233;DHT22;6179;51.748;8.728;2023-01-25T11:12:47;0.60;98.30
12233;DHT22;6179;51.748;8.728;2023-01-25T11:18:52;0.20;98.30
12233;DHT22;6179;51.748;8.728;2023-01-25T11:24:55;0.00;98.30
12233;DHT22;6179;51.748;8.728;2023-01-25T11:30:56;0.10;98.30
12233;DHT22;6179;51.748;8.728;2023-01-25T11:49:43;0.30;98.30
12233;DHT22;6179;51.748;8.728;2023-01-25T12:34:07;0.30;98.30
12233;DHT22;6179;51.748;8.728;2023-01-25T12:40:17;0.10;98.30
12233;DHT22;6179;51.748;8.728;2023-01-25T12:46:35;-0.40;98.30
12233;DHT22;6179;51.748;8.728;2023-01-25T12:52:47;-0.40;98.30
12233;DHT22;6179;51.748;8.728;2023-01-25T12:59:17;-0.20;98.30
12233;DHT22;6179;51.748;8.728;2023-01-25T13:11:44;-0.10;98.30
12233;DHT22;6179;51.748;8.728;2023-01-25T13:17:47;0.70;98.30
12233;DHT22;6179;51.748;8.728;2023-01-25T13:30:31;-0.10;98.30
12233;DHT22;6179;51.748;8.728;2023-01-25T13:42:40;-0.10;98.30
12233;DHT22;6179;51.748;8.728;2023-01-25T13:48:51;-0.40;98.30
12233;DHT22;6179;51.748;8.728;2023-01-25T13:54:58;-0.50;98.30
12233;DHT22;6179;51.748;8.728;2023-01-25T14:01:04;-0.10;98.30
12233;DHT22;6179;51.748;8.728;2023-01-25T14:07:16;-0.40;98.30
12233;DHT22;6179;51.748;8.728;2023-01-25T14:13:20;-0.50;98.30
12233;DHT22;6179;51.748;8.728;2023-01-25T14:19:30;-0.10;98.30
12233;DHT22;6179;51.748;8.728;2023-01-25T14:25:32;0.10;98.30
12233;DHT22;6179;51.748;8.728;2023-01-25T14:31:36;-0.30;98.30
12233;DHT22;6179;51.748;8.728;2023-01-25T14:37:41;-0.40;98.30
12233;DHT22;6179;51.748;8.728;2023-01-25T14:43:45;-0.10;98.30
12233;DHT22;6179;51.748;8.728;2023-01-25T14:49:48;-0.40;98.30
12233;DHT22;6179;51.748;8.728;2023-01-25T14:55:49;-0.40;98.30
12233;DHT22;6179;51.748;8.728;2023-01-25T15:01:52;-0.40;98.30
12233;DHT22;6179;51.748;8.728;2023-01-25T15:07:57;-0.30;98.30
12233;DHT22;6179;51.748;8.728;2023-01-25T15:14:20;-0.40;98.30
12233;DHT22;6179;51.748;8.728;2023-01-25T15:20:37;-0.90;98.30
12233;DHT22;6179;51.748;8.728;2023-01-25T15:26:39;-0.90;98.30
12233;DHT22;6179;51.748;8.728;2023-01-25T15:32:40;-0.70;98.30
12233;DHT22;6179;51.748;8.728;2023-01-25T15:38:41;-0.50;98.30
12233;DHT22;6179;51.748;8.728;2023-01-25T15:44:42;-0.70;98.30
12233;DHT22;6179;51.748;8.728;2023-01-25T15:50:43;-0.20;98.30
12233;DHT22;6179;51.748;8.728;2023-01-25T15:56:51;-0.60;98.30
12233;DHT22;6179;51.748;8.728;2023-01-25T16:02:55;-0.60;98.30
12233;DHT22;6179;51.748;8.728;2023-01-25T16:08:57;-0.60;98.30
12233;DHT22;6179;51.748;8.728;2023-01-25T16:14:59;-0.70;98.30
12233;DHT22;6179;51.748;8.728;2023-01-25T16:21:00;-0.80;98.30
12233;DHT22;6179;51.748;8.728;2023-01-25T16:27:01;-0.60;98.30
12233;DHT22;6179;51.748;8.728;2023-01-25T16:33:01;-0.70;98.30
12233;DHT22;6179;51.748;8.728;2023-01-25T16:45:12;-0.60;98.30
12233;DHT22;6179;51.748;8.728;2023-01-25T16:51:19;-0.30;98.30
12233;DHT22;6179;51.748;8.728;2023-01-25T16:57:24;0.00;98.30
12233;DHT22;6179;51.748;8.728;2023-01-25T17:03:25;0.00;98.30
12233;DHT22;6179;51.748;8.728;2023-01-25T17:09:25;-0.20;98.30
12233;DHT22;6179;51.748;8.728;2023-01-25T17:15:26;-0.70;98.30
12233;DHT22;6179;51.748;8.728;2023-01-25T17:21:29;-0.80;98.30
12233;DHT22;6179;51.748;8.728;2023-01-25T17:27:30;-0.80;98.30
12233;DHT22;6179;51.748;8.728;2023-01-25T17:33:31;-0.80;98.30
12233;DHT22;6179;51.748;8.728;2023-01-25T17:39:32;-1.10;98.30
12233;DHT22;6179;51.748;8.728;2023-01-25T17:45:33;-1.00;98.30
12233;DHT22;6179;51.748;8.728;2023-01-25T17:51:38;-1.00;98.30
12233;DHT22;6179;51.748;8.728;2023-01-25T17:57:39;-0.50;98.30
12233;DHT22;6179;51.748;8.728;2023-01-25T18:03:41;-0.30;98.30
12233;DHT22;6179;51.748;8.728;2023-01-25T18:09:43;-0.80;98.30
12233;DHT22;6179;51.748;8.728;2023-01-25T18:15:43;-0.90;98.30
12233;DHT22;6179;51.748;8.728;2023-01-25T18:21:53;-1.00;98.30
12233;DHT22;6179;51.748;8.728;2023-01-25T18:27:54;-0.80;98.30
12233;DHT22;6179;51.748;8.728;2023-01-25T18:33:55;-1.20;98.30
12233;DHT22;6179;51.748;8.728;2023-01-25T18:39:57;-1.20;98.30
12233;DHT22;6179;51.748;8.728;2023-01-25T18:45:58;-1.20;98.30
12233;DHT22;6179;51.748;8.728;2023-01-25T18:51:58;-0.50;98.30
12233;DHT22;6179;51.748;8.728;2023-01-25T18:57:59;-0.50;98.30
12233;DHT22;6179;51.748;8.728;2023-01-25T19:04:03;-0.80;98.30
12233;DHT22;6179;51.748;8.728;2023-01-25T19:10:04;-0.70;98.30
12233;DHT22;6179;51.748;8.728;2023-01-25T19:16:09;-0.70;98.30
12233;DHT22;6179;51.748;8.728;2023-01-25T19:22:12;-0.50;98.30
12233;DHT22;6179;51.748;8.728;2023-01-25T19:28:13;-0.90;98.30
12233;DHT22;6179;51.748;8.728;2023-01-25T19:34:13;-0.40;98.30
12233;DHT22;6179;51.748;8.728;2023-01-25T19:40:14;-0.90;98.30
12233;DHT22;6179;51.748;8.728;2023-01-25T19:46:17;-0.80;98.30
12233;DHT22;6179;51.748;8.728;2023-01-25T19:52:19;-0.90;98.30
12233;DHT22;6179;51.748;8.728;2023-01-25T19:58:25;-0.90;98.30
12233;DHT22;6179;51.748;8.728;2023-01-25T20:04:26;-1.00;98.30
12233;DHT22;6179;51.748;8.728;2023-01-25T20:10:27;-1.20;98.30
12233;DHT22;6179;51.748;8.728;2023-01-25T20:16:28;-0.90;98.30
12233;DHT22;6179;51.748;8.728;2023-01-25T20:22:31;-0.80;98.30
12233;DHT22;6179;51.748;8.728;2023-01-25T20:28:33;-1.10;98.30
12233;DHT22;6179;51.748;8.728;2023-01-25T20:34:35;-0.90;98.30
12233;DHT22;6179;51.748;8.728;2023-01-25T20:40:36;-0.90;98.30
12233;DHT22;6179;51.748;8.728;2023-01-25T20:46:38;-0.50;98.30
12233;DHT22;6179;51.748;8.728;2023-01-25T20:52:40;-0.60;98.30
12233;DHT22;6179;51.748;8.728;2023-01-25T20:58:41;-0.10;98.30
12233;DHT22;6179;51.748;8.728;2023-01-25T21:04:44;-0.90;98.30
12233;DHT22;6179;51.748;8.728;2023-01-25T21:10:49;-0.90;98.30
12233;DHT22;6179;51.748;8.728;2023-01-25T21:16:51;-0.90;98.30
12233;DHT22;6179;51.748;8.728;2023-01-25T21:22:51;-1.10;98.30
12233;DHT22;6179;51.748;8.728;2023-01-25T21:28:53;-1.10;98.30
12233;DHT22;6179;51.748;8.728;2023-01-25T21:34:54;-0.70;98.30
12233;DHT22;6179;51.748;8.728;2023-01-25T21:41:02;-0.90;98.30
12233;DHT22;6179;51.748;8.728;2023-01-25T21:47:04;-0.90;98.30
12233;DHT22;6179;51.748;8.728;2023-01-25T21:53:05;-0.70;98.30
12233;DHT22;6179;51.748;8.728;2023-01-25T21:59:05;-0.60;98.30
12233;DHT22;6179;51.748;8.728;2023-01-25T22:05:07;-0.70;98.30
12233;DHT22;6179;51.748;8.728;2023-01-25T22:11:09;-0.50;98.30
12233;DHT22;6179;51.748;8.728;2023-01-25T22:17:10;-0.50;98.30
12233;DHT22;6179;51.748;8.728;2023-01-25T22:23:11;-0.70;98.30
12233;DHT22;6179;51.748;8.728;2023-01-25T22:29:12;-0.50;98.30
12233;DHT22;6179;51.748;8.728;2023-01-25T22:35:13;-0.20;98.30
12233;DHT22;6179;51.748;8.728;2023-01-25T22:41:22;-0.60;98.30
12233;DHT22;6179;51.748;8.728;2023-01-25T22:47:27;-0.30;98.30
12233;DHT22;6179;51.748;8.728;2023-01-25T22:53:28;-0.70;98.30
12233;DHT22;6179;51.748;8.728;2023-01-25T22:59:30;-0.10;98.30
12233;DHT22;6179;51.748;8.728;2023-01-25T23:05:32;0.10;98.30
12233;DHT22;6179;51.748;8.728;2023-01-25T23:11:35;-0.60;98.30
12233;DHT22;6179;51.748;8.728;2023-01-25T23:17:46;-0.70;98.30
12233;DHT22;6179;51.748;8.728;2023-01-25T23:24:07;-1.20;98.30
12233;DHT22;6179;51.748;8.728;2023-01-25T23:30:09;-0.60;98.30
12233;DHT22;6179;51.748;8.728;2023-01-25T23:36:17;-0.50;98.30
12233;DHT22;6179;51.748;8.728;2023-01-25T23:42:23;-0.40;98.30
12233;DHT22;6179;51.748;8.728;2023-01-25T23:48:26;-0.70;98.30
12233;DHT22;6179;51.748;8.728;2023-01-25T23:54:27;-0.70;98.30
